sensor_id;sensor_type;location;lat;lon;timestamp;P1;durP1;ratioP1;P2;durP2;ratioP2
25481;SDS011;13395;50.752;4.268;2023-03-01T00:01:44;21.55;;;14.40;;
25481;SDS011;13395;50.752;4.268;2023-03-01T00:04:10;22.55;;;14.07;;
25481;SDS011;13395;50.752;4.268;2023-03-01T00:06:36;23.95;;;14.32;;
25481;SDS011;13395;50.752;4.268;2023-03-01T00:09:02;28.80;;;14.73;;
25481;SDS011;13395;50.752;4.268;2023-03-01T00:11:29;22.88;;;13.00;;
25481;SDS011;13395;50.752;4.268;2023-03-01T00:13:56;23.05;;;14.57;;
25481;SDS011;13395;50.752;4.268;2023-03-01T00:16:25;22.40;;;14.68;;
25481;SDS011;13395;50.752;4.268;2023-03-01T00:18:55;23.35;;;13.90;;
25481;SDS011;13395;50.752;4.268;2023-03-01T00:21:22;22.02;;;14.00;;
25481;SDS011;13395;50.752;4.268;2023-03-01T00:23:49;24.23;;;14.25;;
25481;SDS011;13395;50.752;4.268;2023-03-01T00:26:15;26.40;;;14.70;;
25481;SDS011;13395;50.752;4.268;2023-03-01T00:28:42;25.05;;;14.68;;
25481;SDS011;13395;50.752;4.268;2023-03-01T00:31:13;20.42;;;14.07;;
25481;SDS011;13395;50.752;4.268;2023-03-01T00:33:43;22.58;;;14.23;;
25481;SDS011;13395;50.752;4.268;2023-03-01T00:36:10;29.52;;;15.23;;
25481;SDS011;13395;50.752;4.268;2023-03-01T00:38:39;23.92;;;14.80;;
25481;SDS011;13395;50.752;4.268;2023-03-01T00:41:07;24.63;;;14.13;;
25481;SDS011;13395;50.752;4.268;2023-03-01T00:43:34;24.23;;;12.73;;
25481;SDS011;13395;50.752;4.268;2023-03-01T00:46:09;24.77;;;14.75;;
25481;SDS011;13395;50.752;4.268;2023-03-01T00:48:36;24.60;;;15.48;;
25481;SDS011;13395;50.752;4.268;2023-03-01T00:51:06;19.65;;;14.30;;
25481;SDS011;13395;50.752;4.268;2023-03-01T00:53:33;21.80;;;14.63;;
25481;SDS011;13395;50.752;4.268;2023-03-01T00:55:59;25.02;;;15.27;;
25481;SDS011;13395;50.752;4.268;2023-03-01T00:58:25;23.23;;;14.52;;
25481;SDS011;13395;50.752;4.268;2023-03-01T01:00:50;23.30;;;13.75;;
25481;SDS011;13395;50.752;4.268;2023-03-01T01:03:17;25.40;;;15.23;;
25481;SDS011;13395;50.752;4.268;2023-03-01T01:05:43;21.13;;;13.02;;
25481;SDS011;13395;50.752;4.268;2023-03-01T01:08:09;21.52;;;13.73;;
25481;SDS011;13395;50.752;4.268;2023-03-01T01:10:34;23.05;;;13.88;;
25481;SDS011;13395;50.752;4.268;2023-03-01T01:13:00;23.52;;;14.20;;
25481;SDS011;13395;50.752;4.268;2023-03-01T01:15:26;23.77;;;14.52;;
25481;SDS011;13395;50.752;4.268;2023-03-01T01:17:52;24.58;;;14.77;;
25481;SDS011;13395;50.752;4.268;2023-03-01T01:20:17;23.42;;;14.48;;
25481;SDS011;13395;50.752;4.268;2023-03-01T01:22:43;22.58;;;14.05;;
25481;SDS011;13395;50.752;4.268;2023-03-01T01:25:09;22.67;;;14.48;;
25481;SDS011;13395;50.752;4.268;2023-03-01T01:27:35;22.65;;;13.95;;
25481;SDS011;13395;50.752;4.268;2023-03-01T01:30:01;23.08;;;14.45;;
25481;SDS011;13395;50.752;4.268;2023-03-01T01:32:28;21.90;;;12.98;;
25481;SDS011;13395;50.752;4.268;2023-03-01T01:34:53;23.50;;;13.93;;
25481;SDS011;13395;50.752;4.268;2023-03-01T01:37:19;22.17;;;13.88;;
25481;SDS011;13395;50.752;4.268;2023-03-01T01:39:45;23.92;;;14.85;;
25481;SDS011;13395;50.752;4.268;2023-03-01T01:42:13;24.95;;;13.98;;
25481;SDS011;13395;50.752;4.268;2023-03-01T01:44:42;20.50;;;13.60;;
25481;SDS011;13395;50.752;4.268;2023-03-01T01:47:20;22.30;;;14.23;;
25481;SDS011;13395;50.752;4.268;2023-03-01T01:49:53;24.02;;;13.52;;
25481;SDS011;13395;50.752;4.268;2023-03-01T01:55:05;23.52;;;13.48;;
25481;SDS011;13395;50.752;4.268;2023-03-01T01:57:40;23.02;;;13.73;;
25481;SDS011;13395;50.752;4.268;2023-03-01T02:00:18;22.42;;;13.55;;
25481;SDS011;13395;50.752;4.268;2023-03-01T02:02:49;19.52;;;13.23;;
25481;SDS011;13395;50.752;4.268;2023-03-01T02:05:40;30.30;;;13.57;;
25481;SDS011;13395;50.752;4.268;2023-03-01T02:08:15;25.27;;;15.23;;
25481;SDS011;13395;50.752;4.268;2023-03-01T02:10:44;22.65;;;13.90;;
25481;SDS011;13395;50.752;4.268;2023-03-01T02:13:11;22.48;;;14.10;;
25481;SDS011;13395;50.752;4.268;2023-03-01T02:15:38;20.73;;;13.15;;
25481;SDS011;13395;50.752;4.268;2023-03-01T02:18:05;22.85;;;14.45;;
25481;SDS011;13395;50.752;4.268;2023-03-01T02:20:34;22.73;;;13.43;;
25481;SDS011;13395;50.752;4.268;2023-03-01T02:23:08;22.50;;;12.95;;
25481;SDS011;13395;50.752;4.268;2023-03-01T02:26:19;22.50;;;13.23;;
25481;SDS011;13395;50.752;4.268;2023-03-01T02:28:40;21.75;;;12.02;;
25481;SDS011;13395;50.752;4.268;2023-03-01T02:31:08;23.02;;;13.73;;
25481;SDS011;13395;50.752;4.268;2023-03-01T02:33:54;27.15;;;13.00;;
25481;SDS011;13395;50.752;4.268;2023-03-01T02:36:29;19.10;;;12.75;;
25481;SDS011;13395;50.752;4.268;2023-03-01T02:38:59;24.42;;;12.60;;
25481;SDS011;13395;50.752;4.268;2023-03-01T02:41:27;23.30;;;13.05;;
25481;SDS011;13395;50.752;4.268;2023-03-01T02:43:55;27.00;;;14.27;;
25481;SDS011;13395;50.752;4.268;2023-03-01T02:46:22;18.88;;;13.00;;
25481;SDS011;13395;50.752;4.268;2023-03-01T02:48:50;21.25;;;12.32;;
25481;SDS011;13395;50.752;4.268;2023-03-01T02:54:13;22.60;;;12.43;;
25481;SDS011;13395;50.752;4.268;2023-03-01T02:56:53;18.52;;;12.35;;
25481;SDS011;13395;50.752;4.268;2023-03-01T02:59:20;25.05;;;13.43;;
25481;SDS011;13395;50.752;4.268;2023-03-01T03:01:49;22.38;;;12.32;;
25481;SDS011;13395;50.752;4.268;2023-03-01T03:04:16;19.40;;;13.13;;
25481;SDS011;13395;50.752;4.268;2023-03-01T03:06:46;19.45;;;11.95;;
25481;SDS011;13395;50.752;4.268;2023-03-01T03:09:14;22.50;;;13.40;;
25481;SDS011;13395;50.752;4.268;2023-03-01T03:11:40;27.85;;;13.60;;
25481;SDS011;13395;50.752;4.268;2023-03-01T03:14:08;23.92;;;13.70;;
25481;SDS011;13395;50.752;4.268;2023-03-01T03:16:44;23.70;;;13.23;;
25481;SDS011;13395;50.752;4.268;2023-03-01T03:19:11;20.08;;;11.85;;
25481;SDS011;13395;50.752;4.268;2023-03-01T03:21:38;20.35;;;12.85;;
25481;SDS011;13395;50.752;4.268;2023-03-01T03:24:04;20.95;;;13.18;;
25481;SDS011;13395;50.752;4.268;2023-03-01T03:26:30;16.85;;;11.88;;
25481;SDS011;13395;50.752;4.268;2023-03-01T03:28:56;23.60;;;12.35;;
25481;SDS011;13395;50.752;4.268;2023-03-01T03:31:22;26.20;;;13.27;;
25481;SDS011;13395;50.752;4.268;2023-03-01T03:33:48;25.30;;;13.05;;
25481;SDS011;13395;50.752;4.268;2023-03-01T03:36:17;23.95;;;13.60;;
25481;SDS011;13395;50.752;4.268;2023-03-01T03:38:47;23.70;;;14.02;;
25481;SDS011;13395;50.752;4.268;2023-03-01T03:41:13;25.02;;;13.40;;
25481;SDS011;13395;50.752;4.268;2023-03-01T03:43:40;20.45;;;12.30;;
25481;SDS011;13395;50.752;4.268;2023-03-01T03:46:08;20.27;;;13.15;;
25481;SDS011;13395;50.752;4.268;2023-03-01T03:48:35;24.38;;;13.02;;
25481;SDS011;13395;50.752;4.268;2023-03-01T03:51:03;20.35;;;12.40;;
25481;SDS011;13395;50.752;4.268;2023-03-01T03:53:32;22.27;;;12.60;;
25481;SDS011;13395;50.752;4.268;2023-03-01T03:55:58;22.95;;;13.02;;
25481;SDS011;13395;50.752;4.268;2023-03-01T03:58:24;22.27;;;13.30;;
25481;SDS011;13395;50.752;4.268;2023-03-01T04:00:56;23.67;;;12.85;;
25481;SDS011;13395;50.752;4.268;2023-03-01T04:03:23;20.60;;;13.35;;
25481;SDS011;13395;50.752;4.268;2023-03-01T04:05:50;24.30;;;12.52;;
25481;SDS011;13395;50.752;4.268;2023-03-01T04:08:16;26.35;;;13.52;;
25481;SDS011;13395;50.752;4.268;2023-03-01T04:10:45;24.42;;;13.73;;
25481;SDS011;13395;50.752;4.268;2023-03-01T04:13:13;19.45;;;12.05;;
25481;SDS011;13395;50.752;4.268;2023-03-01T04:15:41;23.73;;;12.43;;
25481;SDS011;13395;50.752;4.268;2023-03-01T04:18:08;16.23;;;11.82;;
25481;SDS011;13395;50.752;4.268;2023-03-01T04:20:35;20.38;;;12.20;;
25481;SDS011;13395;50.752;4.268;2023-03-01T04:23:02;22.40;;;13.07;;
25481;SDS011;13395;50.752;4.268;2023-03-01T04:25:39;22.52;;;12.75;;
25481;SDS011;13395;50.752;4.268;2023-03-01T04:28:06;26.33;;;13.27;;
25481;SDS011;13395;50.752;4.268;2023-03-01T04:30:33;19.52;;;12.40;;
25481;SDS011;13395;50.752;4.268;2023-03-01T04:33:01;20.35;;;13.43;;
25481;SDS011;13395;50.752;4.268;2023-03-01T04:35:28;21.00;;;12.80;;
25481;SDS011;13395;50.752;4.268;2023-03-01T04:37:54;22.23;;;12.73;;
25481;SDS011;13395;50.752;4.268;2023-03-01T04:40:20;21.98;;;12.63;;
25481;SDS011;13395;50.752;4.268;2023-03-01T04:42:46;21.00;;;13.15;;
25481;SDS011;13395;50.752;4.268;2023-03-01T04:45:12;23.02;;;12.48;;
25481;SDS011;13395;50.752;4.268;2023-03-01T04:47:47;20.58;;;12.70;;
25481;SDS011;13395;50.752;4.268;2023-03-01T04:50:14;21.05;;;12.23;;
25481;SDS011;13395;50.752;4.268;2023-03-01T04:52:41;18.75;;;12.25;;
25481;SDS011;13395;50.752;4.268;2023-03-01T04:55:07;25.35;;;12.98;;
25481;SDS011;13395;50.752;4.268;2023-03-01T04:57:34;19.75;;;12.13;;
25481;SDS011;13395;50.752;4.268;2023-03-01T04:59:59;29.25;;;13.02;;
25481;SDS011;13395;50.752;4.268;2023-03-01T05:02:25;23.80;;;13.65;;
25481;SDS011;13395;50.752;4.268;2023-03-01T05:04:51;25.67;;;12.52;;
25481;SDS011;13395;50.752;4.268;2023-03-01T05:07:16;24.38;;;13.50;;
25481;SDS011;13395;50.752;4.268;2023-03-01T05:09:45;24.08;;;13.07;;
25481;SDS011;13395;50.752;4.268;2023-03-01T05:12:12;17.35;;;11.65;;
25481;SDS011;13395;50.752;4.268;2023-03-01T05:14:38;22.80;;;12.65;;
25481;SDS011;13395;50.752;4.268;2023-03-01T05:17:04;23.20;;;11.98;;
25481;SDS011;13395;50.752;4.268;2023-03-01T05:19:30;25.15;;;12.48;;
25481;SDS011;13395;50.752;4.268;2023-03-01T05:21:56;24.27;;;13.07;;
25481;SDS011;13395;50.752;4.268;2023-03-01T05:24:32;22.75;;;11.55;;
25481;SDS011;13395;50.752;4.268;2023-03-01T05:26:59;22.13;;;12.15;;
25481;SDS011;13395;50.752;4.268;2023-03-01T05:29:27;24.77;;;12.27;;
25481;SDS011;13395;50.752;4.268;2023-03-01T05:31:54;24.27;;;13.18;;
25481;SDS011;13395;50.752;4.268;2023-03-01T05:34:24;25.10;;;13.32;;
25481;SDS011;13395;50.752;4.268;2023-03-01T05:36:52;31.80;;;12.38;;
25481;SDS011;13395;50.752;4.268;2023-03-01T05:39:19;20.67;;;12.50;;
25481;SDS011;13395;50.752;4.268;2023-03-01T05:41:51;19.17;;;13.10;;
25481;SDS011;13395;50.752;4.268;2023-03-01T05:44:21;21.30;;;11.95;;
25481;SDS011;13395;50.752;4.268;2023-03-01T05:46:47;26.02;;;12.85;;
25481;SDS011;13395;50.752;4.268;2023-03-01T05:49:14;26.02;;;12.07;;
25481;SDS011;13395;50.752;4.268;2023-03-01T05:51:41;21.13;;;12.18;;
25481;SDS011;13395;50.752;4.268;2023-03-01T05:54:08;24.83;;;12.55;;
25481;SDS011;13395;50.752;4.268;2023-03-01T05:56:36;21.98;;;13.02;;
25481;SDS011;13395;50.752;4.268;2023-03-01T05:59:02;19.73;;;11.85;;
25481;SDS011;13395;50.752;4.268;2023-03-01T06:01:30;22.05;;;12.23;;
25481;SDS011;13395;50.752;4.268;2023-03-01T06:03:56;20.90;;;12.82;;
25481;SDS011;13395;50.752;4.268;2023-03-01T06:06:22;21.63;;;12.80;;
25481;SDS011;13395;50.752;4.268;2023-03-01T06:08:48;19.95;;;12.07;;
25481;SDS011;13395;50.752;4.268;2023-03-01T06:11:14;24.17;;;12.82;;
25481;SDS011;13395;50.752;4.268;2023-03-01T06:13:43;22.23;;;12.40;;
25481;SDS011;13395;50.752;4.268;2023-03-01T06:16:10;22.85;;;12.25;;
25481;SDS011;13395;50.752;4.268;2023-03-01T06:18:36;21.00;;;12.20;;
25481;SDS011;13395;50.752;4.268;2023-03-01T06:21:03;27.58;;;12.90;;
25481;SDS011;13395;50.752;4.268;2023-03-01T06:23:29;21.65;;;12.38;;
25481;SDS011;13395;50.752;4.268;2023-03-01T06:25:55;21.52;;;12.30;;
25481;SDS011;13395;50.752;4.268;2023-03-01T06:28:20;25.63;;;12.30;;
25481;SDS011;13395;50.752;4.268;2023-03-01T06:30:46;28.30;;;13.80;;
25481;SDS011;13395;50.752;4.268;2023-03-01T06:33:12;20.73;;;11.98;;
25481;SDS011;13395;50.752;4.268;2023-03-01T06:35:38;31.65;;;13.48;;
25481;SDS011;13395;50.752;4.268;2023-03-01T06:38:03;24.98;;;15.38;;
25481;SDS011;13395;50.752;4.268;2023-03-01T06:40:30;26.85;;;17.27;;
25481;SDS011;13395;50.752;4.268;2023-03-01T06:42:56;31.58;;;17.65;;
25481;SDS011;13395;50.752;4.268;2023-03-01T06:45:23;28.90;;;17.90;;
25481;SDS011;13395;50.752;4.268;2023-03-01T06:47:49;31.35;;;18.05;;
25481;SDS011;13395;50.752;4.268;2023-03-01T06:50:15;29.25;;;15.43;;
25481;SDS011;13395;50.752;4.268;2023-03-01T06:52:42;32.10;;;21.42;;
25481;SDS011;13395;50.752;4.268;2023-03-01T06:55:09;32.40;;;19.92;;
25481;SDS011;13395;50.752;4.268;2023-03-01T06:57:36;27.30;;;17.63;;
25481;SDS011;13395;50.752;4.268;2023-03-01T07:00:05;29.80;;;16.48;;
25481;SDS011;13395;50.752;4.268;2023-03-01T07:02:32;26.95;;;16.63;;
25481;SDS011;13395;50.752;4.268;2023-03-01T07:04:57;22.63;;;14.50;;
25481;SDS011;13395;50.752;4.268;2023-03-01T07:07:23;25.35;;;15.20;;
25481;SDS011;13395;50.752;4.268;2023-03-01T07:09:49;24.10;;;14.57;;
25481;SDS011;13395;50.752;4.268;2023-03-01T07:12:14;22.63;;;13.20;;
25481;SDS011;13395;50.752;4.268;2023-03-01T07:14:40;22.15;;;13.32;;
25481;SDS011;13395;50.752;4.268;2023-03-01T07:17:06;27.33;;;12.82;;
25481;SDS011;13395;50.752;4.268;2023-03-01T07:19:32;27.20;;;14.23;;
25481;SDS011;13395;50.752;4.268;2023-03-01T07:21:57;25.90;;;14.55;;
25481;SDS011;13395;50.752;4.268;2023-03-01T07:24:23;34.70;;;15.07;;
25481;SDS011;13395;50.752;4.268;2023-03-01T07:26:49;35.28;;;14.15;;
25481;SDS011;13395;50.752;4.268;2023-03-01T07:29:15;27.33;;;14.65;;
25481;SDS011;13395;50.752;4.268;2023-03-01T07:31:41;30.98;;;14.43;;
25481;SDS011;13395;50.752;4.268;2023-03-01T07:34:07;26.70;;;12.07;;
25481;SDS011;13395;50.752;4.268;2023-03-01T07:36:33;21.35;;;13.93;;
25481;SDS011;13395;50.752;4.268;2023-03-01T07:38:58;25.15;;;13.45;;
25481;SDS011;13395;50.752;4.268;2023-03-01T07:41:28;20.23;;;12.82;;
25481;SDS011;13395;50.752;4.268;2023-03-01T07:43:54;27.38;;;13.07;;
25481;SDS011;13395;50.752;4.268;2023-03-01T07:46:20;21.27;;;12.20;;
25481;SDS011;13395;50.752;4.268;2023-03-01T07:48:46;17.85;;;11.48;;
25481;SDS011;13395;50.752;4.268;2023-03-01T07:51:12;18.05;;;11.75;;
25481;SDS011;13395;50.752;4.268;2023-03-01T07:53:38;13.98;;;9.93;;
25481;SDS011;13395;50.752;4.268;2023-03-01T07:56:05;19.70;;;9.88;;
25481;SDS011;13395;50.752;4.268;2023-03-01T07:58:42;12.07;;;9.55;;
25481;SDS011;13395;50.752;4.268;2023-03-01T08:01:09;15.50;;;10.00;;
25481;SDS011;13395;50.752;4.268;2023-03-01T08:03:37;15.23;;;10.30;;
25481;SDS011;13395;50.752;4.268;2023-03-01T08:06:03;14.27;;;9.75;;
25481;SDS011;13395;50.752;4.268;2023-03-01T08:08:30;14.30;;;9.07;;
25481;SDS011;13395;50.752;4.268;2023-03-01T08:10:57;14.18;;;9.45;;
25481;SDS011;13395;50.752;4.268;2023-03-01T08:13:23;13.10;;;10.02;;
25481;SDS011;13395;50.752;4.268;2023-03-01T08:15:49;11.77;;;9.77;;
25481;SDS011;13395;50.752;4.268;2023-03-01T08:18:16;17.20;;;9.27;;
25481;SDS011;13395;50.752;4.268;2023-03-01T08:20:42;15.27;;;8.80;;
25481;SDS011;13395;50.752;4.268;2023-03-01T08:23:08;12.93;;;9.48;;
25481;SDS011;13395;50.752;4.268;2023-03-01T08:25:34;13.68;;;9.52;;
25481;SDS011;13395;50.752;4.268;2023-03-01T08:27:59;13.18;;;9.30;;
25481;SDS011;13395;50.752;4.268;2023-03-01T08:30:25;13.57;;;9.65;;
25481;SDS011;13395;50.752;4.268;2023-03-01T08:32:51;17.40;;;10.15;;
25481;SDS011;13395;50.752;4.268;2023-03-01T08:35:17;14.80;;;9.10;;
25481;SDS011;13395;50.752;4.268;2023-03-01T08:37:44;12.63;;;8.95;;
25481;SDS011;13395;50.752;4.268;2023-03-01T08:40:09;10.48;;;9.10;;
25481;SDS011;13395;50.752;4.268;2023-03-01T08:42:36;10.98;;;8.55;;
25481;SDS011;13395;50.752;4.268;2023-03-01T08:45:04;10.85;;;9.27;;
25481;SDS011;13395;50.752;4.268;2023-03-01T08:47:30;11.32;;;9.18;;
25481;SDS011;13395;50.752;4.268;2023-03-01T08:49:58;13.30;;;9.73;;
25481;SDS011;13395;50.752;4.268;2023-03-01T08:52:24;11.55;;;9.38;;
25481;SDS011;13395;50.752;4.268;2023-03-01T08:54:49;12.35;;;9.73;;
25481;SDS011;13395;50.752;4.268;2023-03-01T08:57:15;15.00;;;9.57;;
25481;SDS011;13395;50.752;4.268;2023-03-01T08:59:41;10.88;;;9.77;;
25481;SDS011;13395;50.752;4.268;2023-03-01T09:02:10;11.32;;;8.90;;
25481;SDS011;13395;50.752;4.268;2023-03-01T09:04:38;17.25;;;9.18;;
25481;SDS011;13395;50.752;4.268;2023-03-01T09:07:04;14.18;;;8.93;;
25481;SDS011;13395;50.752;4.268;2023-03-01T09:09:30;13.35;;;9.23;;
25481;SDS011;13395;50.752;4.268;2023-03-01T09:11:55;13.77;;;10.07;;
25481;SDS011;13395;50.752;4.268;2023-03-01T09:14:21;10.48;;;9.35;;
25481;SDS011;13395;50.752;4.268;2023-03-01T09:16:46;13.70;;;9.48;;
25481;SDS011;13395;50.752;4.268;2023-03-01T09:19:12;13.93;;;8.90;;
25481;SDS011;13395;50.752;4.268;2023-03-01T09:21:38;11.38;;;9.15;;
25481;SDS011;13395;50.752;4.268;2023-03-01T09:24:04;11.60;;;9.52;;
25481;SDS011;13395;50.752;4.268;2023-03-01T09:26:30;10.18;;;9.07;;
25481;SDS011;13395;50.752;4.268;2023-03-01T09:28:56;12.13;;;9.70;;
25481;SDS011;13395;50.752;4.268;2023-03-01T09:31:22;11.80;;;9.30;;
25481;SDS011;13395;50.752;4.268;2023-03-01T09:33:50;10.35;;;9.23;;
25481;SDS011;13395;50.752;4.268;2023-03-01T09:36:18;15.15;;;9.75;;
25481;SDS011;13395;50.752;4.268;2023-03-01T09:38:45;12.80;;;10.15;;
25481;SDS011;13395;50.752;4.268;2023-03-01T09:44:10;13.20;;;9.65;;
25481;SDS011;13395;50.752;4.268;2023-03-01T09:46:44;15.18;;;10.68;;
25481;SDS011;13395;50.752;4.268;2023-03-01T09:49:31;14.80;;;10.32;;
25481;SDS011;13395;50.752;4.268;2023-03-01T09:52:06;14.15;;;10.60;;
25481;SDS011;13395;50.752;4.268;2023-03-01T09:54:44;10.95;;;9.73;;
25481;SDS011;13395;50.752;4.268;2023-03-01T09:57:35;12.90;;;10.45;;
25481;SDS011;13395;50.752;4.268;2023-03-01T10:00:23;13.18;;;11.07;;
25481;SDS011;13395;50.752;4.268;2023-03-01T10:05:56;14.95;;;9.85;;
25481;SDS011;13395;50.752;4.268;2023-03-01T10:11:31;13.52;;;10.57;;
25481;SDS011;13395;50.752;4.268;2023-03-01T10:16:48;18.45;;;12.07;;
25481;SDS011;13395;50.752;4.268;2023-03-01T10:19:27;15.55;;;11.38;;
25481;SDS011;13395;50.752;4.268;2023-03-01T10:21:54;14.88;;;10.82;;
25481;SDS011;13395;50.752;4.268;2023-03-01T10:24:27;13.48;;;10.65;;
25481;SDS011;13395;50.752;4.268;2023-03-01T10:27:01;15.23;;;10.30;;
25481;SDS011;13395;50.752;4.268;2023-03-01T10:29:40;14.27;;;11.00;;
25481;SDS011;13395;50.752;4.268;2023-03-01T10:32:13;15.65;;;11.68;;
25481;SDS011;13395;50.752;4.268;2023-03-01T10:34:39;12.27;;;10.98;;
25481;SDS011;13395;50.752;4.268;2023-03-01T10:37:14;14.02;;;10.95;;
25481;SDS011;13395;50.752;4.268;2023-03-01T10:42:35;11.93;;;9.52;;
25481;SDS011;13395;50.752;4.268;2023-03-01T10:48:11;14.85;;;10.85;;
25481;SDS011;13395;50.752;4.268;2023-03-01T10:50:38;13.20;;;11.77;;
25481;SDS011;13395;50.752;4.268;2023-03-01T10:53:10;12.77;;;11.02;;
25481;SDS011;13395;50.752;4.268;2023-03-01T10:55:56;13.90;;;9.67;;
25481;SDS011;13395;50.752;4.268;2023-03-01T10:58:31;14.35;;;10.20;;
25481;SDS011;13395;50.752;4.268;2023-03-01T11:00:59;12.45;;;11.07;;
25481;SDS011;13395;50.752;4.268;2023-03-01T11:03:29;12.95;;;10.80;;
25481;SDS011;13395;50.752;4.268;2023-03-01T11:08:41;14.52;;;10.80;;
25481;SDS011;13395;50.752;4.268;2023-03-01T11:14:19;11.30;;;9.80;;
25481;SDS011;13395;50.752;4.268;2023-03-01T11:22:42;12.57;;;10.45;;
25481;SDS011;13395;50.752;4.268;2023-03-01T11:25:23;13.60;;;10.95;;
25481;SDS011;13395;50.752;4.268;2023-03-01T11:27:53;13.20;;;11.10;;
25481;SDS011;13395;50.752;4.268;2023-03-01T11:35:34;14.00;;;10.43;;
25481;SDS011;13395;50.752;4.268;2023-03-01T11:49:36;12.32;;;10.70;;
25481;SDS011;13395;50.752;4.268;2023-03-01T12:00:25;10.40;;;9.38;;
25481;SDS011;13395;50.752;4.268;2023-03-01T12:08:06;13.38;;;10.73;;
25481;SDS011;13395;50.752;4.268;2023-03-01T12:10:57;12.93;;;10.07;;
25481;SDS011;13395;50.752;4.268;2023-03-01T12:16:11;13.23;;;10.23;;
25481;SDS011;13395;50.752;4.268;2023-03-01T12:35:36;13.45;;;10.38;;
25481;SDS011;13395;50.752;4.268;2023-03-01T12:43:53;15.43;;;9.52;;
25481;SDS011;13395;50.752;4.268;2023-03-01T12:46:45;14.07;;;9.38;;
25481;SDS011;13395;50.752;4.268;2023-03-01T12:49:19;11.02;;;9.27;;
25481;SDS011;13395;50.752;4.268;2023-03-01T12:52:00;9.35;;;8.40;;
25481;SDS011;13395;50.752;4.268;2023-03-01T12:54:35;11.13;;;9.23;;
25481;SDS011;13395;50.752;4.268;2023-03-01T13:02:52;11.13;;;8.68;;
25481;SDS011;13395;50.752;4.268;2023-03-01T13:05:44;13.93;;;8.80;;
25481;SDS011;13395;50.752;4.268;2023-03-01T13:08:31;12.98;;;9.25;;
25481;SDS011;13395;50.752;4.268;2023-03-01T13:11:15;12.00;;;10.00;;
25481;SDS011;13395;50.752;4.268;2023-03-01T13:13:43;14.60;;;10.43;;
25481;SDS011;13395;50.752;4.268;2023-03-01T13:16:21;14.45;;;9.32;;
25481;SDS011;13395;50.752;4.268;2023-03-01T13:19:05;12.68;;;8.75;;
25481;SDS011;13395;50.752;4.268;2023-03-01T13:21:54;10.82;;;8.65;;
25481;SDS011;13395;50.752;4.268;2023-03-01T13:29:54;14.85;;;8.20;;
25481;SDS011;13395;50.752;4.268;2023-03-01T13:35:08;10.73;;;8.95;;
25481;SDS011;13395;50.752;4.268;2023-03-01T13:37:51;10.75;;;8.90;;
25481;SDS011;13395;50.752;4.268;2023-03-01T13:42:48;11.18;;;9.65;;
25481;SDS011;13395;50.752;4.268;2023-03-01T13:48:08;11.38;;;7.68;;
25481;SDS011;13395;50.752;4.268;2023-03-01T13:50:37;9.20;;;7.95;;
25481;SDS011;13395;50.752;4.268;2023-03-01T13:53:11;10.55;;;8.27;;
25481;SDS011;13395;50.752;4.268;2023-03-01T13:55:44;11.75;;;8.90;;
25481;SDS011;13395;50.752;4.268;2023-03-01T13:58:17;9.55;;;8.05;;
25481;SDS011;13395;50.752;4.268;2023-03-01T14:00:44;14.07;;;9.65;;
25481;SDS011;13395;50.752;4.268;2023-03-01T14:05:41;9.63;;;8.50;;
25481;SDS011;13395;50.752;4.268;2023-03-01T14:08:22;11.65;;;8.70;;
25481;SDS011;13395;50.752;4.268;2023-03-01T14:16:49;12.93;;;8.98;;
25481;SDS011;13395;50.752;4.268;2023-03-01T14:19:20;17.70;;;8.98;;
25481;SDS011;13395;50.752;4.268;2023-03-01T14:22:23;18.13;;;9.48;;
25481;SDS011;13395;50.752;4.268;2023-03-01T14:24:51;15.32;;;9.40;;
25481;SDS011;13395;50.752;4.268;2023-03-01T14:27:33;13.25;;;9.10;;
25481;SDS011;13395;50.752;4.268;2023-03-01T14:30:10;14.23;;;9.65;;
25481;SDS011;13395;50.752;4.268;2023-03-01T14:32:41;12.15;;;9.27;;
25481;SDS011;13395;50.752;4.268;2023-03-01T14:35:20;13.52;;;8.95;;
25481;SDS011;13395;50.752;4.268;2023-03-01T14:37:48;12.93;;;9.27;;
25481;SDS011;13395;50.752;4.268;2023-03-01T14:40:48;12.45;;;9.32;;
25481;SDS011;13395;50.752;4.268;2023-03-01T14:43:08;13.52;;;8.85;;
25481;SDS011;13395;50.752;4.268;2023-03-01T14:45:36;13.20;;;9.20;;
25481;SDS011;13395;50.752;4.268;2023-03-01T14:48:03;12.90;;;8.95;;
25481;SDS011;13395;50.752;4.268;2023-03-01T14:50:31;14.80;;;9.18;;
25481;SDS011;13395;50.752;4.268;2023-03-01T14:52:59;13.65;;;9.05;;
25481;SDS011;13395;50.752;4.268;2023-03-01T14:55:31;13.93;;;9.30;;
25481;SDS011;13395;50.752;4.268;2023-03-01T14:58:05;11.85;;;9.27;;
25481;SDS011;13395;50.752;4.268;2023-03-01T15:00:37;15.10;;;8.65;;
25481;SDS011;13395;50.752;4.268;2023-03-01T15:03:08;12.18;;;9.02;;
25481;SDS011;13395;50.752;4.268;2023-03-01T15:05:40;12.43;;;8.95;;
25481;SDS011;13395;50.752;4.268;2023-03-01T15:08:08;18.20;;;9.65;;
25481;SDS011;13395;50.752;4.268;2023-03-01T15:10:57;19.15;;;9.73;;
25481;SDS011;13395;50.752;4.268;2023-03-01T15:13:43;13.07;;;9.02;;
25481;SDS011;13395;50.752;4.268;2023-03-01T15:18:45;15.38;;;9.32;;
25481;SDS011;13395;50.752;4.268;2023-03-01T15:21:21;13.55;;;9.68;;
25481;SDS011;13395;50.752;4.268;2023-03-01T15:23:57;15.57;;;9.50;;
25481;SDS011;13395;50.752;4.268;2023-03-01T15:26:30;15.63;;;10.18;;
25481;SDS011;13395;50.752;4.268;2023-03-01T15:29:00;14.27;;;8.77;;
25481;SDS011;13395;50.752;4.268;2023-03-01T15:31:27;14.68;;;8.98;;
25481;SDS011;13395;50.752;4.268;2023-03-01T15:36:49;12.27;;;8.77;;
25481;SDS011;13395;50.752;4.268;2023-03-01T15:39:37;14.00;;;8.60;;
25481;SDS011;13395;50.752;4.268;2023-03-01T15:42:17;16.40;;;9.07;;
25481;SDS011;13395;50.752;4.268;2023-03-01T15:45:08;12.27;;;8.25;;
25481;SDS011;13395;50.752;4.268;2023-03-01T15:47:41;15.00;;;8.30;;
25481;SDS011;13395;50.752;4.268;2023-03-01T15:50:20;12.00;;;9.38;;
25481;SDS011;13395;50.752;4.268;2023-03-01T15:52:48;15.10;;;9.27;;
25481;SDS011;13395;50.752;4.268;2023-03-01T15:55:16;15.18;;;9.82;;
25481;SDS011;13395;50.752;4.268;2023-03-01T15:57:47;24.95;;;11.07;;
25481;SDS011;13395;50.752;4.268;2023-03-01T16:00:14;15.32;;;9.20;;
25481;SDS011;13395;50.752;4.268;2023-03-01T16:02:41;15.85;;;9.63;;
25481;SDS011;13395;50.752;4.268;2023-03-01T16:05:16;12.77;;;8.80;;
25481;SDS011;13395;50.752;4.268;2023-03-01T16:07:48;14.18;;;9.35;;
25481;SDS011;13395;50.752;4.268;2023-03-01T16:10:13;16.17;;;10.00;;
25481;SDS011;13395;50.752;4.268;2023-03-01T16:12:39;13.25;;;9.75;;
25481;SDS011;13395;50.752;4.268;2023-03-01T16:15:09;16.77;;;10.00;;
25481;SDS011;13395;50.752;4.268;2023-03-01T16:17:44;14.65;;;9.60;;
25481;SDS011;13395;50.752;4.268;2023-03-01T16:20:09;12.82;;;9.13;;
25481;SDS011;13395;50.752;4.268;2023-03-01T16:22:36;16.42;;;9.57;;
25481;SDS011;13395;50.752;4.268;2023-03-01T16:25:01;13.60;;;9.50;;
25481;SDS011;13395;50.752;4.268;2023-03-01T16:27:27;14.25;;;8.70;;
25481;SDS011;13395;50.752;4.268;2023-03-01T16:29:53;13.52;;;8.80;;
25481;SDS011;13395;50.752;4.268;2023-03-01T16:32:19;11.20;;;9.10;;
25481;SDS011;13395;50.752;4.268;2023-03-01T16:34:44;12.45;;;8.27;;
25481;SDS011;13395;50.752;4.268;2023-03-01T16:37:12;13.50;;;9.18;;
25481;SDS011;13395;50.752;4.268;2023-03-01T16:39:38;14.55;;;8.23;;
25481;SDS011;13395;50.752;4.268;2023-03-01T16:42:04;11.93;;;8.18;;
25481;SDS011;13395;50.752;4.268;2023-03-01T16:44:29;12.35;;;8.32;;